sensor_id;sensor_type;location;lat;lon;timestamp;pressure;altitude;pressure_sealevel;temperature;humidity
23307;BME280;11822;52.470;10.688;2022-07-05T00:00:06;101240.22;;;18.94;52.68
23307;BME280;11822;52.470;10.688;2022-07-05T00:02:31;101237.84;;;18.93;52.54
23307;BME280;11822;52.470;10.688;2022-07-05T00:04:57;101243.31;;;18.89;52.67
23307;BME280;11822;52.470;10.688;2022-07-05T00:07:22;101248.81;;;18.85;52.70
23307;BME280;11822;52.470;10.688;2022-07-05T00:09:49;101246.81;;;18.82;52.94
23307;BME280;11822;52.470;10.688;2022-07-05T00:12:15;101246.00;;;18.82;52.83
23307;BME280;11822;52.470;10.688;2022-07-05T00:14:42;101241.59;;;18.77;52.87
23307;BME280;11822;52.470;10.688;2022-07-05T00:17:08;101247.88;;;18.74;52.96
23307;BME280;11822;52.470;10.688;2022-07-05T00:19:33;101245.09;;;18.74;53.01
23307;BME280;11822;52.470;10.688;2022-07-05T00:21:59;101247.78;;;18.67;52.99
23307;BME280;11822;52.470;10.688;2022-07-05T00:24:25;101248.47;;;18.60;53.32
23307;BME280;11822;52.470;10.688;2022-07-05T00:26:51;101255.59;;;18.61;53.56
23307;BME280;11822;52.470;10.688;2022-07-05T00:29:16;101248.84;;;18.58;53.69
23307;BME280;11822;52.470;10.688;2022-07-05T00:31:42;101251.19;;;18.56;53.75
23307;BME280;11822;52.470;10.688;2022-07-05T00:34:07;101249.59;;;18.55;53.72
23307;BME280;11822;52.470;10.688;2022-07-05T00:36:33;101246.34;;;18.50;53.77
23307;BME280;11822;52.470;10.688;2022-07-05T00:38:58;101246.28;;;18.46;53.95
23307;BME280;11822;52.470;10.688;2022-07-05T00:41:24;101254.16;;;18.44;54.28
23307;BME280;11822;52.470;10.688;2022-07-05T00:43:59;101249.75;;;18.39;54.35
23307;BME280;11822;52.470;10.688;2022-07-05T00:46:26;101257.13;;;18.31;54.73
23307;BME280;11822;52.470;10.688;2022-07-05T00:48:51;101257.44;;;18.26;55.07
23307;BME280;11822;52.470;10.688;2022-07-05T00:51:17;101259.72;;;18.21;55.03
23307;BME280;11822;52.470;10.688;2022-07-05T00:53:43;101257.31;;;18.19;54.86
23307;BME280;11822;52.470;10.688;2022-07-05T00:56:10;101255.28;;;18.16;55.03
23307;BME280;11822;52.470;10.688;2022-07-05T00:58:35;101258.78;;;18.13;55.32
23307;BME280;11822;52.470;10.688;2022-07-05T01:01:03;101263.13;;;18.10;55.16
23307;BME280;11822;52.470;10.688;2022-07-05T01:03:29;101261.41;;;18.02;54.97
23307;BME280;11822;52.470;10.688;2022-07-05T01:05:55;101267.31;;;18.00;54.99
23307;BME280;11822;52.470;10.688;2022-07-05T01:08:24;101267.16;;;17.93;55.16
23307;BME280;11822;52.470;10.688;2022-07-05T01:10:50;101266.34;;;17.93;55.57
23307;BME280;11822;52.470;10.688;2022-07-05T01:13:17;101272.59;;;17.90;55.53
23307;BME280;11822;52.470;10.688;2022-07-05T01:15:43;101271.81;;;17.89;55.26
23307;BME280;11822;52.470;10.688;2022-07-05T01:18:09;101268.63;;;17.87;55.64
23307;BME280;11822;52.470;10.688;2022-07-05T01:20:35;101273.28;;;17.83;55.61
23307;BME280;11822;52.470;10.688;2022-07-05T01:23:01;101274.78;;;17.80;55.57
23307;BME280;11822;52.470;10.688;2022-07-05T01:25:30;101269.56;;;17.75;55.73
23307;BME280;11822;52.470;10.688;2022-07-05T01:27:58;101266.75;;;17.71;55.79
23307;BME280;11822;52.470;10.688;2022-07-05T01:30:24;101268.22;;;17.65;55.74
23307;BME280;11822;52.470;10.688;2022-07-05T01:32:50;101258.72;;;17.63;55.78
23307;BME280;11822;52.470;10.688;2022-07-05T01:35:18;101266.91;;;17.59;55.66
23307;BME280;11822;52.470;10.688;2022-07-05T01:37:50;101264.09;;;17.55;55.73
23307;BME280;11822;52.470;10.688;2022-07-05T01:40:17;101270.72;;;17.51;55.81
23307;BME280;11822;52.470;10.688;2022-07-05T01:42:43;101267.50;;;17.49;56.00
23307;BME280;11822;52.470;10.688;2022-07-05T01:45:09;101265.47;;;17.46;56.02
23307;BME280;11822;52.470;10.688;2022-07-05T01:47:36;101266.19;;;17.42;56.35
23307;BME280;11822;52.470;10.688;2022-07-05T01:50:04;101269.69;;;17.39;56.29
23307;BME280;11822;52.470;10.688;2022-07-05T01:52:31;101260.97;;;17.37;56.39
23307;BME280;11822;52.470;10.688;2022-07-05T01:55:00;101263.69;;;17.34;56.34
23307;BME280;11822;52.470;10.688;2022-07-05T01:57:27;101264.47;;;17.34;56.09
23307;BME280;11822;52.470;10.688;2022-07-05T01:59:52;101266.44;;;17.34;56.26
23307;BME280;11822;52.470;10.688;2022-07-05T02:02:18;101276.97;;;17.28;56.51
23307;BME280;11822;52.470;10.688;2022-07-05T02:04:43;101270.56;;;17.24;56.51
23307;BME280;11822;52.470;10.688;2022-07-05T02:07:09;101270.94;;;17.22;56.52
23307;BME280;11822;52.470;10.688;2022-07-05T02:09:35;101268.91;;;17.19;56.44
23307;BME280;11822;52.470;10.688;2022-07-05T02:12:02;101271.50;;;17.12;56.75
23307;BME280;11822;52.470;10.688;2022-07-05T02:14:28;101268.03;;;17.15;56.57
23307;BME280;11822;52.470;10.688;2022-07-05T02:16:53;101271.50;;;17.12;56.72
23307;BME280;11822;52.470;10.688;2022-07-05T02:19:18;101264.41;;;17.11;56.60
23307;BME280;11822;52.470;10.688;2022-07-05T02:21:44;101264.25;;;17.04;56.54
23307;BME280;11822;52.470;10.688;2022-07-05T02:24:09;101253.94;;;17.01;56.69
23307;BME280;11822;52.470;10.688;2022-07-05T02:26:35;101263.19;;;16.92;56.82
23307;BME280;11822;52.470;10.688;2022-07-05T02:29:02;101261.41;;;16.84;56.84
23307;BME280;11822;52.470;10.688;2022-07-05T02:31:27;101259.03;;;16.82;56.99
23307;BME280;11822;52.470;10.688;2022-07-05T02:33:52;101259.31;;;16.77;57.28
23307;BME280;11822;52.470;10.688;2022-07-05T02:36:18;101266.38;;;16.75;57.26
23307;BME280;11822;52.470;10.688;2022-07-05T02:38:43;101265.56;;;16.74;57.18
23307;BME280;11822;52.470;10.688;2022-07-05T02:41:10;101271.44;;;16.73;57.22
23307;BME280;11822;52.470;10.688;2022-07-05T02:43:36;101277.31;;;16.71;57.38
23307;BME280;11822;52.470;10.688;2022-07-05T02:46:03;101274.09;;;16.69;57.43
23307;BME280;11822;52.470;10.688;2022-07-05T02:48:28;101278.84;;;16.68;57.43
23307;BME280;11822;52.470;10.688;2022-07-05T02:50:55;101278.13;;;16.72;57.38
23307;BME280;11822;52.470;10.688;2022-07-05T02:53:20;101272.16;;;16.69;57.28
23307;BME280;11822;52.470;10.688;2022-07-05T02:55:46;101269.41;;;16.69;57.42
23307;BME280;11822;52.470;10.688;2022-07-05T02:58:11;101269.69;;;16.64;57.47
23307;BME280;11822;52.470;10.688;2022-07-05T03:00:36;101273.94;;;16.62;57.24
23307;BME280;11822;52.470;10.688;2022-07-05T03:03:02;101268.44;;;16.62;57.14
23307;BME280;11822;52.470;10.688;2022-07-05T03:05:28;101283.75;;;16.59;57.06
23307;BME280;11822;52.470;10.688;2022-07-05T03:07:53;101277.84;;;16.61;56.96
23307;BME280;11822;52.470;10.688;2022-07-05T03:10:19;101283.38;;;16.61;57.06
23307;BME280;11822;52.470;10.688;2022-07-05T03:12:44;101283.81;;;16.63;56.98
23307;BME280;11822;52.470;10.688;2022-07-05T03:15:10;101290.59;;;16.65;57.29
23307;BME280;11822;52.470;10.688;2022-07-05T03:17:35;101286.66;;;16.66;57.11
23307;BME280;11822;52.470;10.688;2022-07-05T03:20:00;101293.13;;;16.74;56.99
23307;BME280;11822;52.470;10.688;2022-07-05T03:22:26;101293.59;;;16.76;56.93
23307;BME280;11822;52.470;10.688;2022-07-05T03:24:51;101289.38;;;16.82;56.91
23307;BME280;11822;52.470;10.688;2022-07-05T03:27:17;101294.19;;;16.86;57.14
23307;BME280;11822;52.470;10.688;2022-07-05T03:29:42;101292.31;;;16.90;57.20
23307;BME280;11822;52.470;10.688;2022-07-05T03:32:07;101282.16;;;16.94;57.10
23307;BME280;11822;52.470;10.688;2022-07-05T03:34:33;101286.16;;;16.96;57.40
23307;BME280;11822;52.470;10.688;2022-07-05T03:36:58;101292.56;;;17.01;57.38
23307;BME280;11822;52.470;10.688;2022-07-05T03:39:23;101278.03;;;17.04;57.44
23307;BME280;11822;52.470;10.688;2022-07-05T03:41:49;101284.81;;;17.06;57.19
23307;BME280;11822;52.470;10.688;2022-07-05T03:44:14;101280.91;;;17.07;57.15
23307;BME280;11822;52.470;10.688;2022-07-05T03:46:39;101289.97;;;17.08;57.33
23307;BME280;11822;52.470;10.688;2022-07-05T03:49:05;101287.63;;;17.10;57.10
23307;BME280;11822;52.470;10.688;2022-07-05T03:51:30;101296.28;;;17.08;57.22
23307;BME280;11822;52.470;10.688;2022-07-05T03:53:55;101289.97;;;17.08;57.18
23307;BME280;11822;52.470;10.688;2022-07-05T03:56:21;101298.69;;;17.10;57.13
23307;BME280;11822;52.470;10.688;2022-07-05T03:58:49;101296.72;;;17.10;57.11
23307;BME280;11822;52.470;10.688;2022-07-05T04:01:15;101299.22;;;17.16;57.50
23307;BME280;11822;52.470;10.688;2022-07-05T04:03:40;101299.28;;;17.19;57.85
23307;BME280;11822;52.470;10.688;2022-07-05T04:06:07;101311.56;;;17.22;58.19
23307;BME280;11822;52.470;10.688;2022-07-05T04:08:33;101300.22;;;17.27;58.12
23307;BME280;11822;52.470;10.688;2022-07-05T04:10:58;101303.13;;;17.34;58.21
23307;BME280;11822;52.470;10.688;2022-07-05T04:13:23;101306.41;;;17.40;58.21
23307;BME280;11822;52.470;10.688;2022-07-05T04:15:49;101308.00;;;17.41;58.13
23307;BME280;11822;52.470;10.688;2022-07-05T04:18:14;101303.34;;;17.45;58.09
23307;BME280;11822;52.470;10.688;2022-07-05T04:20:40;101307.06;;;17.53;57.60
23307;BME280;11822;52.470;10.688;2022-07-05T04:23:05;101304.38;;;17.56;57.38
23307;BME280;11822;52.470;10.688;2022-07-05T04:25:30;101319.13;;;17.64;57.09
23307;BME280;11822;52.470;10.688;2022-07-05T04:27:56;101315.25;;;17.69;57.12
23307;BME280;11822;52.470;10.688;2022-07-05T04:30:23;101309.84;;;17.76;57.25
23307;BME280;11822;52.470;10.688;2022-07-05T04:32:49;101302.88;;;17.82;57.49
23307;BME280;11822;52.470;10.688;2022-07-05T04:35:15;101314.00;;;17.86;57.54
23307;BME280;11822;52.470;10.688;2022-07-05T04:37:41;101315.94;;;17.85;57.28
23307;BME280;11822;52.470;10.688;2022-07-05T04:40:09;101322.78;;;17.92;57.21
23307;BME280;11822;52.470;10.688;2022-07-05T04:42:35;101323.28;;;17.97;57.36
23307;BME280;11822;52.470;10.688;2022-07-05T04:45:01;101328.97;;;18.05;57.48
23307;BME280;11822;52.470;10.688;2022-07-05T04:47:27;101332.66;;;18.12;57.45
23307;BME280;11822;52.470;10.688;2022-07-05T04:49:53;101323.63;;;18.15;57.27
23307;BME280;11822;52.470;10.688;2022-07-05T04:52:19;101322.50;;;18.20;57.11
23307;BME280;11822;52.470;10.688;2022-07-05T04:54:44;101324.63;;;18.27;57.14
23307;BME280;11822;52.470;10.688;2022-07-05T04:57:09;101327.50;;;18.34;56.95
23307;BME280;11822;52.470;10.688;2022-07-05T04:59:35;101339.44;;;18.38;56.48
23307;BME280;11822;52.470;10.688;2022-07-05T05:02:00;101327.25;;;18.43;56.34
23307;BME280;11822;52.470;10.688;2022-07-05T05:04:26;101326.59;;;18.50;56.16
23307;BME280;11822;52.470;10.688;2022-07-05T05:06:51;101332.63;;;18.59;56.02
23307;BME280;11822;52.470;10.688;2022-07-05T05:09:17;101325.63;;;18.65;55.76
23307;BME280;11822;52.470;10.688;2022-07-05T05:11:42;101337.59;;;18.73;55.77
23307;BME280;11822;52.470;10.688;2022-07-05T05:14:07;101339.66;;;18.80;55.63
23307;BME280;11822;52.470;10.688;2022-07-05T05:16:33;101336.91;;;18.80;55.27
23307;BME280;11822;52.470;10.688;2022-07-05T05:18:58;101323.06;;;18.80;55.26
23307;BME280;11822;52.470;10.688;2022-07-05T05:21:23;101333.78;;;18.81;55.19
23307;BME280;11822;52.470;10.688;2022-07-05T05:23:49;101334.66;;;18.89;55.19
23307;BME280;11822;52.470;10.688;2022-07-05T05:26:14;101330.50;;;18.99;54.92
23307;BME280;11822;52.470;10.688;2022-07-05T05:28:40;101341.66;;;19.06;54.60
23307;BME280;11822;52.470;10.688;2022-07-05T05:31:06;101342.91;;;19.09;54.70
23307;BME280;11822;52.470;10.688;2022-07-05T05:33:31;101342.94;;;19.12;54.91
23307;BME280;11822;52.470;10.688;2022-07-05T05:35:57;101340.69;;;19.22;54.69
23307;BME280;11822;52.470;10.688;2022-07-05T05:38:22;101339.59;;;19.30;54.37
23307;BME280;11822;52.470;10.688;2022-07-05T05:40:48;101339.34;;;19.39;54.49
23307;BME280;11822;52.470;10.688;2022-07-05T05:43:13;101346.13;;;19.45;53.66
23307;BME280;11822;52.470;10.688;2022-07-05T05:45:39;101354.06;;;19.46;53.80
23307;BME280;11822;52.470;10.688;2022-07-05T05:48:04;101352.81;;;19.40;53.70
23307;BME280;11822;52.470;10.688;2022-07-05T05:50:31;101353.19;;;19.39;53.76
23307;BME280;11822;52.470;10.688;2022-07-05T05:52:58;101347.16;;;19.33;53.87
23307;BME280;11822;52.470;10.688;2022-07-05T05:55:24;101348.31;;;19.28;54.12
23307;BME280;11822;52.470;10.688;2022-07-05T05:57:50;101352.25;;;19.27;54.24
23307;BME280;11822;52.470;10.688;2022-07-05T06:00:17;101363.31;;;19.27;54.74
23307;BME280;11822;52.470;10.688;2022-07-05T06:02:45;101357.47;;;19.32;54.62
23307;BME280;11822;52.470;10.688;2022-07-05T06:05:11;101357.06;;;19.34;54.50
23307;BME280;11822;52.470;10.688;2022-07-05T06:07:51;101368.66;;;19.43;54.62
23307;BME280;11822;52.470;10.688;2022-07-05T06:10:20;101375.78;;;19.41;54.19
23307;BME280;11822;52.470;10.688;2022-07-05T06:12:47;101376.19;;;19.43;54.79
23307;BME280;11822;52.470;10.688;2022-07-05T06:15:12;101370.28;;;19.44;54.55
23307;BME280;11822;52.470;10.688;2022-07-05T06:17:38;101376.25;;;19.50;54.42
23307;BME280;11822;52.470;10.688;2022-07-05T06:20:09;101376.31;;;19.54;54.64
23307;BME280;11822;52.470;10.688;2022-07-05T06:22:35;101379.94;;;19.58;54.66
23307;BME280;11822;52.470;10.688;2022-07-05T06:25:01;101385.16;;;19.63;55.20
23307;BME280;11822;52.470;10.688;2022-07-05T06:27:26;101382.88;;;19.72;54.74
23307;BME280;11822;52.470;10.688;2022-07-05T06:29:52;101392.50;;;19.82;54.34
23307;BME280;11822;52.470;10.688;2022-07-05T06:32:17;101388.25;;;19.92;53.97
23307;BME280;11822;52.470;10.688;2022-07-05T06:34:42;101389.19;;;20.03;54.04
23307;BME280;11822;52.470;10.688;2022-07-05T06:37:08;101392.44;;;20.09;53.63
23307;BME280;11822;52.470;10.688;2022-07-05T06:39:33;101402.44;;;20.17;53.07
23307;BME280;11822;52.470;10.688;2022-07-05T06:41:59;101394.13;;;20.21;52.79
23307;BME280;11822;52.470;10.688;2022-07-05T06:44:24;101398.16;;;20.27;52.76
23307;BME280;11822;52.470;10.688;2022-07-05T06:46:50;101398.19;;;20.31;52.44
23307;BME280;11822;52.470;10.688;2022-07-05T06:49:15;101393.09;;;20.36;52.31
23307;BME280;11822;52.470;10.688;2022-07-05T06:51:40;101398.72;;;20.44;51.73
23307;BME280;11822;52.470;10.688;2022-07-05T06:54:06;101401.50;;;20.47;51.85
23307;BME280;11822;52.470;10.688;2022-07-05T06:56:31;101392.03;;;20.52;51.82
23307;BME280;11822;52.470;10.688;2022-07-05T06:58:56;101393.69;;;20.60;51.14
23307;BME280;11822;52.470;10.688;2022-07-05T07:01:22;101389.34;;;20.63;50.78
23307;BME280;11822;52.470;10.688;2022-07-05T07:03:47;101386.63;;;20.66;50.76
23307;BME280;11822;52.470;10.688;2022-07-05T07:06:13;101393.00;;;20.71;50.17
23307;BME280;11822;52.470;10.688;2022-07-05T07:08:38;101396.97;;;20.77;50.00
23307;BME280;11822;52.470;10.688;2022-07-05T07:11:22;101398.72;;;20.92;50.05
23307;BME280;11822;52.470;10.688;2022-07-05T07:13:47;101396.28;;;20.87;50.00
23307;BME280;11822;52.470;10.688;2022-07-05T07:16:13;101395.22;;;20.99;49.83
23307;BME280;11822;52.470;10.688;2022-07-05T07:18:38;101396.44;;;21.09;49.75
23307;BME280;11822;52.470;10.688;2022-07-05T07:21:04;101394.53;;;21.20;49.62
23307;BME280;11822;52.470;10.688;2022-07-05T07:23:30;101398.19;;;21.32;49.34
23307;BME280;11822;52.470;10.688;2022-07-05T07:25:56;101392.66;;;21.43;48.81
23307;BME280;11822;52.470;10.688;2022-07-05T07:28:21;101388.34;;;21.52;48.17
23307;BME280;11822;52.470;10.688;2022-07-05T07:30:46;101389.56;;;21.59;48.16
23307;BME280;11822;52.470;10.688;2022-07-05T07:33:12;101393.19;;;21.70;47.48
23307;BME280;11822;52.470;10.688;2022-07-05T07:35:37;101383.72;;;21.85;47.36
23307;BME280;11822;52.470;10.688;2022-07-05T07:38:02;101379.00;;;22.01;46.96
23307;BME280;11822;52.470;10.688;2022-07-05T07:40:28;101382.19;;;22.10;46.82
23307;BME280;11822;52.470;10.688;2022-07-05T07:42:53;101389.75;;;22.09;47.00
23307;BME280;11822;52.470;10.688;2022-07-05T07:45:19;101383.38;;;22.02;46.54
23307;BME280;11822;52.470;10.688;2022-07-05T07:47:44;101379.78;;;21.94;45.95
23307;BME280;11822;52.470;10.688;2022-07-05T07:50:10;101377.00;;;21.90;45.41
23307;BME280;11822;52.470;10.688;2022-07-05T07:52:35;101381.75;;;21.86;45.79
23307;BME280;11822;52.470;10.688;2022-07-05T07:55:02;101380.97;;;21.89;45.60
23307;BME280;11822;52.470;10.688;2022-07-05T07:57:28;101377.00;;;21.90;45.36
23307;BME280;11822;52.470;10.688;2022-07-05T07:59:53;101377.81;;;22.05;45.76
23307;BME280;11822;52.470;10.688;2022-07-05T08:02:19;101378.63;;;22.20;45.19
23307;BME280;11822;52.470;10.688;2022-07-05T08:04:47;101377.84;;;22.38;44.85
23307;BME280;11822;52.470;10.688;2022-07-05T08:07:13;101381.44;;;22.38;43.60
23307;BME280;11822;52.470;10.688;2022-07-05T08:09:38;101379.84;;;22.37;43.53
23307;BME280;11822;52.470;10.688;2022-07-05T08:12:04;101391.78;;;22.41;43.48
23307;BME280;11822;52.470;10.688;2022-07-05T08:14:31;101378.28;;;22.58;43.52
23307;BME280;11822;52.470;10.688;2022-07-05T08:16:56;101377.06;;;22.81;43.22
23307;BME280;11822;52.470;10.688;2022-07-05T08:19:23;101381.44;;;22.96;42.76
23307;BME280;11822;52.470;10.688;2022-07-05T08:22:07;101382.56;;;23.13;42.79
23307;BME280;11822;52.470;10.688;2022-07-05T08:24:33;101380.56;;;23.36;41.60
23307;BME280;11822;52.470;10.688;2022-07-05T08:26:59;101386.47;;;23.45;41.33
23307;BME280;11822;52.470;10.688;2022-07-05T08:29:25;101388.84;;;23.50;40.84
23307;BME280;11822;52.470;10.688;2022-07-05T08:31:51;101391.66;;;23.54;40.53
23307;BME280;11822;52.470;10.688;2022-07-05T08:34:17;101392.06;;;23.49;39.93
23307;BME280;11822;52.470;10.688;2022-07-05T08:36:44;101384.50;;;23.42;39.71
23307;BME280;11822;52.470;10.688;2022-07-05T08:39:11;101383.72;;;23.41;39.61
23307;BME280;11822;52.470;10.688;2022-07-05T08:41:38;101374.19;;;23.39;39.52
23307;BME280;11822;52.470;10.688;2022-07-05T08:44:04;101380.97;;;23.38;39.16
23307;BME280;11822;52.470;10.688;2022-07-05T08:46:31;101370.19;;;23.36;39.41
23307;BME280;11822;52.470;10.688;2022-07-05T08:48:59;101380.97;;;23.30;38.89
23307;BME280;11822;52.470;10.688;2022-07-05T08:51:26;101374.59;;;23.30;38.73
23307;BME280;11822;52.470;10.688;2022-07-05T08:53:53;101368.63;;;23.39;38.66
23307;BME280;11822;52.470;10.688;2022-07-05T08:56:19;101372.13;;;23.50;38.50
23307;BME280;11822;52.470;10.688;2022-07-05T08:58:45;101373.69;;;23.62;38.11
23307;BME280;11822;52.470;10.688;2022-07-05T09:01:12;101376.84;;;23.71;38.14
23307;BME280;11822;52.470;10.688;2022-07-05T09:03:42;101377.19;;;23.81;37.75
23307;BME280;11822;52.470;10.688;2022-07-05T09:06:10;101372.72;;;23.90;37.39
23307;BME280;11822;52.470;10.688;2022-07-05T09:08:38;101370.28;;;23.96;37.13
23307;BME280;11822;52.470;10.688;2022-07-05T09:11:07;101379.84;;;24.02;37.25
23307;BME280;11822;52.470;10.688;2022-07-05T09:13:36;101388.63;;;24.04;36.88
23307;BME280;11822;52.470;10.688;2022-07-05T09:16:02;101378.66;;;24.07;36.79
23307;BME280;11822;52.470;10.688;2022-07-05T09:28:57;101377.03;;;24.10;36.10
23307;BME280;11822;52.470;10.688;2022-07-05T09:31:30;101385.03;;;24.04;35.67
23307;BME280;11822;52.470;10.688;2022-07-05T09:34:09;101377.44;;;24.04;36.01
23307;BME280;11822;52.470;10.688;2022-07-05T09:36:58;101365.84;;;24.13;36.09
23307;BME280;11822;52.470;10.688;2022-07-05T09:42:19;101370.56;;;24.24;35.22
23307;BME280;11822;52.470;10.688;2022-07-05T09:44:47;101385.72;;;24.19;34.84
23307;BME280;11822;52.470;10.688;2022-07-05T09:47:15;101367.78;;;24.20;35.08
23307;BME280;11822;52.470;10.688;2022-07-05T09:49:45;101376.97;;;24.20;34.47
23307;BME280;11822;52.470;10.688;2022-07-05T09:57:36;101378.84;;;24.31;34.29
23307;BME280;11822;52.470;10.688;2022-07-05T10:00:11;101372.78;;;24.43;33.90
23307;BME280;11822;52.470;10.688;2022-07-05T10:02:40;101373.53;;;24.47;34.08
23307;BME280;11822;52.470;10.688;2022-07-05T10:05:13;101379.50;;;24.53;32.98
23307;BME280;11822;52.470;10.688;2022-07-05T10:10:19;101374.25;;;24.59;32.53
23307;BME280;11822;52.470;10.688;2022-07-05T10:12:48;101370.22;;;24.63;33.22
23307;BME280;11822;52.470;10.688;2022-07-05T10:15:16;101369.03;;;24.64;32.40
23307;BME280;11822;52.470;10.688;2022-07-05T10:17:50;101363.38;;;24.72;33.24
23307;BME280;11822;52.470;10.688;2022-07-05T10:22:57;101375.94;;;24.94;32.79
23307;BME280;11822;52.470;10.688;2022-07-05T10:25:23;101375.59;;;24.89;31.86
23307;BME280;11822;52.470;10.688;2022-07-05T10:27:50;101382.03;;;24.82;31.96
23307;BME280;11822;52.470;10.688;2022-07-05T10:30:19;101381.72;;;24.76;31.80
23307;BME280;11822;52.470;10.688;2022-07-05T10:32:45;101377.25;;;24.83;31.70
23307;BME280;11822;52.470;10.688;2022-07-05T10:35:11;101367.97;;;24.93;31.51
23307;BME280;11822;52.470;10.688;2022-07-05T10:37:37;101362.25;;;25.07;31.42
23307;BME280;11822;52.470;10.688;2022-07-05T10:40:04;101362.53;;;25.17;31.42
23307;BME280;11822;52.470;10.688;2022-07-05T10:45:38;101361.03;;;25.40;31.29
23307;BME280;11822;52.470;10.688;2022-07-05T10:48:25;101375.13;;;25.32;30.94
23307;BME280;11822;52.470;10.688;2022-07-05T10:53:27;101369.03;;;25.06;30.77
23307;BME280;11822;52.470;10.688;2022-07-05T11:06:09;101362.09;;;25.18;30.69
23307;BME280;11822;52.470;10.688;2022-07-05T11:11:32;101363.22;;;24.90;30.73
23307;BME280;11822;52.470;10.688;2022-07-05T11:13:59;101355.75;;;24.76;30.95
23307;BME280;11822;52.470;10.688;2022-07-05T11:22:03;101351.59;;;24.95;30.88
23307;BME280;11822;52.470;10.688;2022-07-05T11:24:33;101341.41;;;25.12;30.85
23307;BME280;11822;52.470;10.688;2022-07-05T11:27:00;101350.75;;;25.33;30.94
23307;BME280;11822;52.470;10.688;2022-07-05T11:32:13;101333.38;;;25.52;29.56
23307;BME280;11822;52.470;10.688;2022-07-05T11:34:40;101347.81;;;25.47;30.04
23307;BME280;11822;52.470;10.688;2022-07-05T11:37:26;101351.75;;;25.50;29.91
23307;BME280;11822;52.470;10.688;2022-07-05T11:42:31;101351.81;;;25.46;29.00
23307;BME280;11822;52.470;10.688;2022-07-05T11:44:57;101345.19;;;25.29;28.91
23307;BME280;11822;52.470;10.688;2022-07-05T11:47:23;101354.88;;;25.21;29.28
23307;BME280;11822;52.470;10.688;2022-07-05T11:49:55;101333.09;;;25.08;29.40
23307;BME280;11822;52.470;10.688;2022-07-05T11:52:28;101334.63;;;25.13;29.82
23307;BME280;11822;52.470;10.688;2022-07-05T11:54:54;101329.16;;;25.02;29.55
23307;BME280;11822;52.470;10.688;2022-07-05T11:57:20;101329.72;;;25.21;29.76
23307;BME280;11822;52.470;10.688;2022-07-05T11:59:46;101324.25;;;25.45;29.50
23307;BME280;11822;52.470;10.688;2022-07-05T12:02:11;101337.16;;;25.66;29.19
23307;BME280;11822;52.470;10.688;2022-07-05T12:04:37;101338.50;;;25.85;28.85
23307;BME280;11822;52.470;10.688;2022-07-05T12:07:02;101335.22;;;25.90;28.75
23307;BME280;11822;52.470;10.688;2022-07-05T12:09:29;101338.88;;;25.87;28.73
23307;BME280;11822;52.470;10.688;2022-07-05T12:12:21;101335.38;;;25.79;28.14
23307;BME280;11822;52.470;10.688;2022-07-05T12:15:05;101327.69;;;25.60;28.45
23307;BME280;11822;52.470;10.688;2022-07-05T12:17:33;101335.41;;;25.48;28.35
23307;BME280;11822;52.470;10.688;2022-07-05T12:19:59;101342.31;;;25.36;28.26
23307;BME280;11822;52.470;10.688;2022-07-05T12:22:34;101337.19;;;25.31;28.01
23307;BME280;11822;52.470;10.688;2022-07-05T12:25:01;101338.00;;;25.32;28.38
23307;BME280;11822;52.470;10.688;2022-07-05T12:27:29;101329.69;;;25.25;28.63
23307;BME280;11822;52.470;10.688;2022-07-05T12:29:56;101332.13;;;25.19;28.67
23307;BME280;11822;52.470;10.688;2022-07-05T12:35:44;101329.00;;;25.17;29.51
23307;BME280;11822;52.470;10.688;2022-07-05T12:38:14;101326.47;;;25.26;29.25
23307;BME280;11822;52.470;10.688;2022-07-05T12:40:42;101328.78;;;25.31;29.40
23307;BME280;11822;52.470;10.688;2022-07-05T12:43:17;101320.69;;;25.41;28.05
23307;BME280;11822;52.470;10.688;2022-07-05T12:45:59;101322.94;;;25.53;28.21
23307;BME280;11822;52.470;10.688;2022-07-05T12:48:31;101324.06;;;25.59;28.11
23307;BME280;11822;52.470;10.688;2022-07-05T12:50:58;101320.13;;;25.84;28.32
23307;BME280;11822;52.470;10.688;2022-07-05T12:53:23;101323.28;;;25.86;27.16
23307;BME280;11822;52.470;10.688;2022-07-05T12:56:08;101318.84;;;26.16;27.88
23307;BME280;11822;52.470;10.688;2022-07-05T12:58:57;101317.94;;;26.23;27.61
23307;BME280;11822;52.470;10.688;2022-07-05T13:06:51;101321.00;;;26.05;27.51
23307;BME280;11822;52.470;10.688;2022-07-05T13:14:40;101312.56;;;25.54;27.56
23307;BME280;11822;52.470;10.688;2022-07-05T13:17:07;101317.38;;;25.53;27.99
23307;BME280;11822;52.470;10.688;2022-07-05T13:19:33;101315.38;;;25.54;27.72
23307;BME280;11822;52.470;10.688;2022-07-05T13:21:59;101314.94;;;25.55;27.84
23307;BME280;11822;52.470;10.688;2022-07-05T13:24:24;101323.28;;;25.59;27.65
23307;BME280;11822;52.470;10.688;2022-07-05T13:26:50;101312.50;;;25.57;27.35
23307;BME280;11822;52.470;10.688;2022-07-05T13:29:15;101310.81;;;25.63;26.79
23307;BME280;11822;52.470;10.688;2022-07-05T13:31:40;101311.56;;;25.67;27.52
23307;BME280;11822;52.470;10.688;2022-07-05T13:34:09;101318.66;;;25.76;26.98
23307;BME280;11822;52.470;10.688;2022-07-05T13:36:35;101321.72;;;25.85;27.18
23307;BME280;11822;52.470;10.688;2022-07-05T13:39:00;101313.56;;;25.94;27.32
23307;BME280;11822;52.470;10.688;2022-07-05T13:41:25;101314.72;;;25.97;27.36
23307;BME280;11822;52.470;10.688;2022-07-05T13:43:51;101314.31;;;25.99;27.27
23307;BME280;11822;52.470;10.688;2022-07-05T13:46:17;101328.81;;;25.90;27.05